sensor_id;sensor_type;location;lat;lon;timestamp;P1;durP1;ratioP1;P2;durP2;ratioP2
24721;SDS011;12826;52.368;5.258;2022-10-16T00:01:39;4.93;;;1.55;;
24721;SDS011;12826;52.368;5.258;2022-10-16T00:04:40;4.60;;;1.65;;
24721;SDS011;12826;52.368;5.258;2022-10-16T00:07:54;4.10;;;1.38;;
24721;SDS011;12826;52.368;5.258;2022-10-16T00:11:06;2.85;;;1.30;;
24721;SDS011;12826;52.368;5.258;2022-10-16T00:17:21;3.33;;;1.30;;
24721;SDS011;12826;52.368;5.258;2022-10-16T00:20:22;4.78;;;1.52;;
24721;SDS011;12826;52.368;5.258;2022-10-16T00:26:27;5.55;;;1.40;;
24721;SDS011;12826;52.368;5.258;2022-10-16T00:29:31;4.68;;;1.33;;
24721;SDS011;12826;52.368;5.258;2022-10-16T00:32:35;2.72;;;1.08;;
24721;SDS011;12826;52.368;5.258;2022-10-16T00:35:35;3.05;;;1.00;;
24721;SDS011;12826;52.368;5.258;2022-10-16T00:38:36;4.60;;;1.30;;
24721;SDS011;12826;52.368;5.258;2022-10-16T00:47:55;7.20;;;1.23;;
24721;SDS011;12826;52.368;5.258;2022-10-16T00:50:58;6.93;;;1.75;;
24721;SDS011;12826;52.368;5.258;2022-10-16T00:54:06;2.30;;;1.10;;
24721;SDS011;12826;52.368;5.258;2022-10-16T00:57:09;3.15;;;1.17;;
24721;SDS011;12826;52.368;5.258;2022-10-16T01:03:32;2.50;;;1.00;;
24721;SDS011;12826;52.368;5.258;2022-10-16T01:16:52;2.15;;;1.35;;
24721;SDS011;12826;52.368;5.258;2022-10-16T01:23:15;3.65;;;1.25;;
24721;SDS011;12826;52.368;5.258;2022-10-16T01:38:41;4.22;;;1.30;;
24721;SDS011;12826;52.368;5.258;2022-10-16T01:41:44;2.30;;;0.80;;
24721;SDS011;12826;52.368;5.258;2022-10-16T01:44:52;5.32;;;1.10;;
24721;SDS011;12826;52.368;5.258;2022-10-16T01:47:56;2.78;;;0.80;;
24721;SDS011;12826;52.368;5.258;2022-10-16T01:51:11;2.47;;;1.17;;
24721;SDS011;12826;52.368;5.258;2022-10-16T01:54:26;4.38;;;0.93;;
24721;SDS011;12826;52.368;5.258;2022-10-16T01:57:44;3.53;;;1.00;;
24721;SDS011;12826;52.368;5.258;2022-10-16T02:00:55;1.35;;;0.80;;
24721;SDS011;12826;52.368;5.258;2022-10-16T02:04:02;3.22;;;1.20;;
24721;SDS011;12826;52.368;5.258;2022-10-16T02:10:10;3.35;;;1.70;;
24721;SDS011;12826;52.368;5.258;2022-10-16T02:16:42;3.63;;;1.35;;
24721;SDS011;12826;52.368;5.258;2022-10-16T02:19:45;2.20;;;1.10;;
24721;SDS011;12826;52.368;5.258;2022-10-16T02:25:49;4.60;;;1.30;;
24721;SDS011;12826;52.368;5.258;2022-10-16T02:28:55;4.78;;;1.45;;
24721;SDS011;12826;52.368;5.258;2022-10-16T02:32:01;3.58;;;1.45;;
24721;SDS011;12826;52.368;5.258;2022-10-16T02:35:05;5.05;;;1.50;;
24721;SDS011;12826;52.368;5.258;2022-10-16T02:38:13;3.55;;;1.33;;
24721;SDS011;12826;52.368;5.258;2022-10-16T02:41:23;4.90;;;1.45;;
24721;SDS011;12826;52.368;5.258;2022-10-16T02:44:28;2.35;;;1.15;;
24721;SDS011;12826;52.368;5.258;2022-10-16T02:50:37;2.38;;;1.30;;
24721;SDS011;12826;52.368;5.258;2022-10-16T02:53:40;5.18;;;1.85;;
24721;SDS011;12826;52.368;5.258;2022-10-16T02:59:46;3.03;;;1.50;;
24721;SDS011;12826;52.368;5.258;2022-10-16T03:02:51;3.47;;;1.85;;
24721;SDS011;12826;52.368;5.258;2022-10-16T03:05:59;2.45;;;1.88;;
24721;SDS011;12826;52.368;5.258;2022-10-16T03:08:59;5.28;;;2.17;;
24721;SDS011;12826;52.368;5.258;2022-10-16T03:12:00;4.85;;;2.05;;
24721;SDS011;12826;52.368;5.258;2022-10-16T03:15:09;3.35;;;2.15;;
24721;SDS011;12826;52.368;5.258;2022-10-16T03:18:09;3.10;;;2.38;;
24721;SDS011;12826;52.368;5.258;2022-10-16T03:21:12;5.43;;;2.92;;
24721;SDS011;12826;52.368;5.258;2022-10-16T03:24:13;7.90;;;2.70;;
24721;SDS011;12826;52.368;5.258;2022-10-16T03:27:16;5.78;;;2.60;;
24721;SDS011;12826;52.368;5.258;2022-10-16T03:30:19;3.05;;;2.20;;
24721;SDS011;12826;52.368;5.258;2022-10-16T03:33:22;4.35;;;2.25;;
24721;SDS011;12826;52.368;5.258;2022-10-16T03:36:23;3.78;;;2.10;;
24721;SDS011;12826;52.368;5.258;2022-10-16T03:39:23;6.82;;;2.67;;
24721;SDS011;12826;52.368;5.258;2022-10-16T03:42:31;3.42;;;1.92;;
24721;SDS011;12826;52.368;5.258;2022-10-16T03:45:34;3.40;;;1.83;;
24721;SDS011;12826;52.368;5.258;2022-10-16T03:48:34;5.30;;;1.95;;
24721;SDS011;12826;52.368;5.258;2022-10-16T03:51:35;6.07;;;2.30;;
24721;SDS011;12826;52.368;5.258;2022-10-16T03:54:36;8.30;;;1.90;;
24721;SDS011;12826;52.368;5.258;2022-10-16T03:57:43;3.47;;;2.22;;
24721;SDS011;12826;52.368;5.258;2022-10-16T04:00:44;4.57;;;1.90;;
24721;SDS011;12826;52.368;5.258;2022-10-16T04:03:46;4.47;;;2.08;;
24721;SDS011;12826;52.368;5.258;2022-10-16T04:06:56;7.53;;;1.95;;
24721;SDS011;12826;52.368;5.258;2022-10-16T04:10:00;5.90;;;1.85;;
24721;SDS011;12826;52.368;5.258;2022-10-16T04:13:00;9.02;;;2.03;;
24721;SDS011;12826;52.368;5.258;2022-10-16T04:16:01;4.85;;;1.98;;
24721;SDS011;12826;52.368;5.258;2022-10-16T04:25:10;3.55;;;2.10;;
24721;SDS011;12826;52.368;5.258;2022-10-16T04:28:14;2.67;;;1.73;;
24721;SDS011;12826;52.368;5.258;2022-10-16T04:31:17;3.40;;;1.80;;
24721;SDS011;12826;52.368;5.258;2022-10-16T04:34:17;4.68;;;2.05;;
24721;SDS011;12826;52.368;5.258;2022-10-16T04:40:27;6.00;;;1.95;;
24721;SDS011;12826;52.368;5.258;2022-10-16T04:43:28;5.35;;;2.10;;
24721;SDS011;12826;52.368;5.258;2022-10-16T04:49:33;2.88;;;1.73;;
24721;SDS011;12826;52.368;5.258;2022-10-16T04:52:36;3.30;;;1.58;;
24721;SDS011;12826;52.368;5.258;2022-10-16T04:55:42;6.00;;;2.25;;
24721;SDS011;12826;52.368;5.258;2022-10-16T04:58:43;4.38;;;1.95;;
24721;SDS011;12826;52.368;5.258;2022-10-16T05:04:47;4.65;;;1.67;;
24721;SDS011;12826;52.368;5.258;2022-10-16T05:07:48;3.97;;;1.75;;
24721;SDS011;12826;52.368;5.258;2022-10-16T05:13:55;4.75;;;1.70;;
24721;SDS011;12826;52.368;5.258;2022-10-16T05:20:39;3.90;;;1.67;;
24721;SDS011;12826;52.368;5.258;2022-10-16T05:23:43;3.55;;;1.80;;
24721;SDS011;12826;52.368;5.258;2022-10-16T05:26:44;2.37;;;1.80;;
24721;SDS011;12826;52.368;5.258;2022-10-16T05:29:45;2.90;;;1.75;;
24721;SDS011;12826;52.368;5.258;2022-10-16T05:33:07;3.63;;;1.90;;
24721;SDS011;12826;52.368;5.258;2022-10-16T05:39:15;3.05;;;1.73;;
24721;SDS011;12826;52.368;5.258;2022-10-16T05:45:22;5.40;;;2.38;;
24721;SDS011;12826;52.368;5.258;2022-10-16T05:48:26;6.95;;;2.30;;
24721;SDS011;12826;52.368;5.258;2022-10-16T05:51:30;6.45;;;2.55;;
24721;SDS011;12826;52.368;5.258;2022-10-16T05:54:30;5.80;;;2.22;;
24721;SDS011;12826;52.368;5.258;2022-10-16T05:57:31;5.65;;;2.45;;
24721;SDS011;12826;52.368;5.258;2022-10-16T06:00:32;4.35;;;2.47;;
24721;SDS011;12826;52.368;5.258;2022-10-16T06:03:43;4.88;;;2.20;;
24721;SDS011;12826;52.368;5.258;2022-10-16T06:07:10;2.50;;;2.13;;
24721;SDS011;12826;52.368;5.258;2022-10-16T06:10:18;7.28;;;2.13;;
24721;SDS011;12826;52.368;5.258;2022-10-16T06:13:41;7.00;;;2.30;;
24721;SDS011;12826;52.368;5.258;2022-10-16T06:17:04;2.85;;;1.42;;
24721;SDS011;12826;52.368;5.258;2022-10-16T06:23:42;6.60;;;1.60;;
24721;SDS011;12826;52.368;5.258;2022-10-16T06:27:04;6.80;;;1.55;;
24721;SDS011;12826;52.368;5.258;2022-10-16T06:30:11;5.90;;;1.60;;
24721;SDS011;12826;52.368;5.258;2022-10-16T06:33:12;2.85;;;1.58;;
24721;SDS011;12826;52.368;5.258;2022-10-16T06:36:14;5.07;;;1.60;;
24721;SDS011;12826;52.368;5.258;2022-10-16T06:39:15;2.25;;;1.67;;
24721;SDS011;12826;52.368;5.258;2022-10-16T06:45:32;6.85;;;2.30;;
24721;SDS011;12826;52.368;5.258;2022-10-16T06:48:33;5.53;;;2.95;;
24721;SDS011;12826;52.368;5.258;2022-10-16T06:51:34;3.47;;;2.50;;
24721;SDS011;12826;52.368;5.258;2022-10-16T06:54:42;5.97;;;3.00;;
24721;SDS011;12826;52.368;5.258;2022-10-16T07:04:44;5.13;;;2.92;;
24721;SDS011;12826;52.368;5.258;2022-10-16T07:07:53;4.20;;;2.88;;
24721;SDS011;12826;52.368;5.258;2022-10-16T07:13:56;5.85;;;2.80;;
24721;SDS011;12826;52.368;5.258;2022-10-16T07:17:03;5.75;;;2.80;;
24721;SDS011;12826;52.368;5.258;2022-10-16T07:23:05;6.75;;;2.63;;
24721;SDS011;12826;52.368;5.258;2022-10-16T07:26:06;8.80;;;2.53;;
24721;SDS011;12826;52.368;5.258;2022-10-16T07:32:19;5.43;;;2.40;;
24721;SDS011;12826;52.368;5.258;2022-10-16T07:35:19;6.10;;;2.05;;
24721;SDS011;12826;52.368;5.258;2022-10-16T07:38:29;4.93;;;1.85;;
24721;SDS011;12826;52.368;5.258;2022-10-16T07:41:30;5.80;;;1.98;;
24721;SDS011;12826;52.368;5.258;2022-10-16T07:44:32;8.75;;;1.83;;
24721;SDS011;12826;52.368;5.258;2022-10-16T07:50:37;4.38;;;1.60;;
24721;SDS011;12826;52.368;5.258;2022-10-16T07:53:39;7.32;;;1.50;;
24721;SDS011;12826;52.368;5.258;2022-10-16T07:59:41;7.97;;;1.85;;
24721;SDS011;12826;52.368;5.258;2022-10-16T08:02:42;7.47;;;2.75;;
24721;SDS011;12826;52.368;5.258;2022-10-16T08:08:45;2.38;;;1.30;;
24721;SDS011;12826;52.368;5.258;2022-10-16T08:11:46;3.92;;;1.38;;
24721;SDS011;12826;52.368;5.258;2022-10-16T08:14:57;4.55;;;1.65;;
24721;SDS011;12826;52.368;5.258;2022-10-16T08:17:58;4.90;;;1.40;;
24721;SDS011;12826;52.368;5.258;2022-10-16T08:21:00;5.30;;;1.38;;
24721;SDS011;12826;52.368;5.258;2022-10-16T08:27:10;5.40;;;1.48;;
24721;SDS011;12826;52.368;5.258;2022-10-16T08:30:10;6.97;;;1.58;;
24721;SDS011;12826;52.368;5.258;2022-10-16T08:33:19;5.65;;;1.55;;
24721;SDS011;12826;52.368;5.258;2022-10-16T08:36:20;4.78;;;1.67;;
24721;SDS011;12826;52.368;5.258;2022-10-16T08:39:20;12.65;;;2.10;;
24721;SDS011;12826;52.368;5.258;2022-10-16T08:48:27;6.57;;;2.05;;
24721;SDS011;12826;52.368;5.258;2022-10-16T08:51:47;9.50;;;1.77;;
24721;SDS011;12826;52.368;5.258;2022-10-16T08:54:50;8.63;;;1.83;;
24721;SDS011;12826;52.368;5.258;2022-10-16T09:04:04;8.20;;;1.90;;
24721;SDS011;12826;52.368;5.258;2022-10-16T09:07:30;8.90;;;1.80;;
24721;SDS011;12826;52.368;5.258;2022-10-16T09:10:40;6.38;;;2.00;;
24721;SDS011;12826;52.368;5.258;2022-10-16T09:16:57;6.55;;;1.77;;
24721;SDS011;12826;52.368;5.258;2022-10-16T09:23:10;6.35;;;1.85;;
24721;SDS011;12826;52.368;5.258;2022-10-16T09:26:14;9.15;;;2.15;;
24721;SDS011;12826;52.368;5.258;2022-10-16T09:32:21;9.18;;;2.00;;
24721;SDS011;12826;52.368;5.258;2022-10-16T09:35:24;6.85;;;1.60;;
24721;SDS011;12826;52.368;5.258;2022-10-16T09:38:35;6.35;;;1.67;;
24721;SDS011;12826;52.368;5.258;2022-10-16T09:41:37;12.63;;;2.33;;
24721;SDS011;12826;52.368;5.258;2022-10-16T09:44:38;10.55;;;1.60;;
24721;SDS011;12826;52.368;5.258;2022-10-16T09:50:56;12.40;;;1.70;;
24721;SDS011;12826;52.368;5.258;2022-10-16T09:53:59;9.43;;;1.90;;
24721;SDS011;12826;52.368;5.258;2022-10-16T09:57:20;7.28;;;2.05;;
24721;SDS011;12826;52.368;5.258;2022-10-16T10:00:24;10.93;;;2.15;;
24721;SDS011;12826;52.368;5.258;2022-10-16T10:03:38;10.20;;;1.63;;
24721;SDS011;12826;52.368;5.258;2022-10-16T10:06:44;12.80;;;1.92;;
24721;SDS011;12826;52.368;5.258;2022-10-16T10:12:49;12.00;;;1.75;;
24721;SDS011;12826;52.368;5.258;2022-10-16T10:15:50;10.75;;;1.80;;
24721;SDS011;12826;52.368;5.258;2022-10-16T10:22:16;10.95;;;1.88;;
24721;SDS011;12826;52.368;5.258;2022-10-16T10:32:17;8.70;;;2.10;;
24721;SDS011;12826;52.368;5.258;2022-10-16T10:35:30;9.05;;;1.75;;
24721;SDS011;12826;52.368;5.258;2022-10-16T10:45:16;9.65;;;1.85;;
24721;SDS011;12826;52.368;5.258;2022-10-16T11:02:24;10.55;;;1.92;;
24721;SDS011;12826;52.368;5.258;2022-10-16T11:11:56;9.70;;;1.77;;
24721;SDS011;12826;52.368;5.258;2022-10-16T11:15:16;15.85;;;1.50;;
24721;SDS011;12826;52.368;5.258;2022-10-16T11:24:42;8.95;;;1.67;;
24721;SDS011;12826;52.368;5.258;2022-10-16T11:39:41;10.05;;;1.65;;
24721;SDS011;12826;52.368;5.258;2022-10-16T11:42:51;11.65;;;1.70;;
24721;SDS011;12826;52.368;5.258;2022-10-16T11:57:49;6.50;;;1.85;;
24721;SDS011;12826;52.368;5.258;2022-10-16T12:00:58;10.13;;;1.70;;
24721;SDS011;12826;52.368;5.258;2022-10-16T12:07:24;8.85;;;1.50;;
24721;SDS011;12826;52.368;5.258;2022-10-16T12:10:29;8.77;;;1.58;;
24721;SDS011;12826;52.368;5.258;2022-10-16T12:13:33;11.55;;;1.58;;
24721;SDS011;12826;52.368;5.258;2022-10-16T12:19:35;9.40;;;1.73;;
24721;SDS011;12826;52.368;5.258;2022-10-16T12:22:36;8.77;;;1.33;;
24721;SDS011;12826;52.368;5.258;2022-10-16T12:25:44;8.93;;;1.35;;
24721;SDS011;12826;52.368;5.258;2022-10-16T12:29:08;9.63;;;1.42;;
24721;SDS011;12826;52.368;5.258;2022-10-16T12:35:33;6.28;;;1.50;;
24721;SDS011;12826;52.368;5.258;2022-10-16T12:38:47;12.55;;;1.48;;
24721;SDS011;12826;52.368;5.258;2022-10-16T12:41:59;9.00;;;1.70;;
24721;SDS011;12826;52.368;5.258;2022-10-16T12:45:01;8.75;;;1.55;;
24721;SDS011;12826;52.368;5.258;2022-10-16T12:48:21;10.98;;;1.38;;
24721;SDS011;12826;52.368;5.258;2022-10-16T12:51:33;7.88;;;1.73;;
24721;SDS011;12826;52.368;5.258;2022-10-16T12:54:37;11.90;;;1.38;;
24721;SDS011;12826;52.368;5.258;2022-10-16T12:57:46;7.53;;;1.40;;
24721;SDS011;12826;52.368;5.258;2022-10-16T13:00:56;6.10;;;1.27;;
24721;SDS011;12826;52.368;5.258;2022-10-16T13:11:19;8.70;;;1.95;;
24721;SDS011;12826;52.368;5.258;2022-10-16T13:29:08;7.95;;;1.45;;
24721;SDS011;12826;52.368;5.258;2022-10-16T13:32:10;8.95;;;1.38;;
24721;SDS011;12826;52.368;5.258;2022-10-16T13:35:31;11.48;;;1.33;;
24721;SDS011;12826;52.368;5.258;2022-10-16T13:38:33;7.20;;;1.65;;
24721;SDS011;12826;52.368;5.258;2022-10-16T13:41:35;11.35;;;1.58;;
24721;SDS011;12826;52.368;5.258;2022-10-16T13:44:37;8.60;;;1.60;;
24721;SDS011;12826;52.368;5.258;2022-10-16T13:47:41;9.95;;;1.40;;
24721;SDS011;12826;52.368;5.258;2022-10-16T13:50:41;10.80;;;1.70;;
24721;SDS011;12826;52.368;5.258;2022-10-16T13:53:42;9.85;;;1.38;;
24721;SDS011;12826;52.368;5.258;2022-10-16T13:56:43;8.00;;;1.30;;
24721;SDS011;12826;52.368;5.258;2022-10-16T13:59:43;6.38;;;1.27;;
24721;SDS011;12826;52.368;5.258;2022-10-16T14:02:43;6.00;;;1.10;;
24721;SDS011;12826;52.368;5.258;2022-10-16T14:06:03;10.30;;;1.40;;
24721;SDS011;12826;52.368;5.258;2022-10-16T14:09:05;8.27;;;1.50;;
24721;SDS011;12826;52.368;5.258;2022-10-16T14:12:08;7.82;;;1.48;;
24721;SDS011;12826;52.368;5.258;2022-10-16T14:15:17;7.43;;;1.35;;
24721;SDS011;12826;52.368;5.258;2022-10-16T14:18:19;5.50;;;0.98;;
24721;SDS011;12826;52.368;5.258;2022-10-16T14:21:22;5.72;;;1.27;;
24721;SDS011;12826;52.368;5.258;2022-10-16T14:27:34;11.13;;;1.52;;
24721;SDS011;12826;52.368;5.258;2022-10-16T14:30:48;9.35;;;1.75;;
24721;SDS011;12826;52.368;5.258;2022-10-16T14:34:03;5.28;;;1.38;;
24721;SDS011;12826;52.368;5.258;2022-10-16T14:43:35;6.32;;;1.42;;
24721;SDS011;12826;52.368;5.258;2022-10-16T14:46:52;9.95;;;1.88;;
24721;SDS011;12826;52.368;5.258;2022-10-16T14:49:53;7.85;;;1.60;;
24721;SDS011;12826;52.368;5.258;2022-10-16T14:56:06;9.93;;;1.75;;
24721;SDS011;12826;52.368;5.258;2022-10-16T14:59:08;10.63;;;1.65;;
24721;SDS011;12826;52.368;5.258;2022-10-16T15:05:49;9.00;;;1.60;;
24721;SDS011;12826;52.368;5.258;2022-10-16T15:08:52;9.65;;;1.67;;
24721;SDS011;12826;52.368;5.258;2022-10-16T15:11:55;7.53;;;2.25;;
24721;SDS011;12826;52.368;5.258;2022-10-16T15:15:05;6.60;;;1.65;;
24721;SDS011;12826;52.368;5.258;2022-10-16T15:18:23;5.75;;;1.25;;
24721;SDS011;12826;52.368;5.258;2022-10-16T15:28:31;12.57;;;2.17;;
24721;SDS011;12826;52.368;5.258;2022-10-16T15:31:40;7.95;;;2.08;;
24721;SDS011;12826;52.368;5.258;2022-10-16T15:38:05;10.13;;;1.55;;
24721;SDS011;12826;52.368;5.258;2022-10-16T15:48:06;8.88;;;1.80;;
24721;SDS011;12826;52.368;5.258;2022-10-16T16:01:50;11.70;;;1.83;;
24721;SDS011;12826;52.368;5.258;2022-10-16T16:22:27;7.53;;;1.60;;
24721;SDS011;12826;52.368;5.258;2022-10-16T16:36:17;30.67;;;2.63;;
24721;SDS011;12826;52.368;5.258;2022-10-16T16:39:20;12.68;;;1.88;;
24721;SDS011;12826;52.368;5.258;2022-10-16T17:21:48;9.05;;;2.08;;
24721;SDS011;12826;52.368;5.258;2022-10-16T17:25:23;13.25;;;2.78;;
24721;SDS011;12826;52.368;5.258;2022-10-16T17:28:49;13.20;;;2.10;;
24721;SDS011;12826;52.368;5.258;2022-10-16T17:31:57;11.40;;;2.03;;
24721;SDS011;12826;52.368;5.258;2022-10-16T17:35:10;10.35;;;2.63;;
24721;SDS011;12826;52.368;5.258;2022-10-16T17:38:23;6.80;;;2.15;;
24721;SDS011;12826;52.368;5.258;2022-10-16T17:41:24;9.07;;;1.90;;
24721;SDS011;12826;52.368;5.258;2022-10-16T17:44:40;11.93;;;2.30;;
24721;SDS011;12826;52.368;5.258;2022-10-16T17:47:52;8.65;;;2.15;;
24721;SDS011;12826;52.368;5.258;2022-10-16T17:54:13;13.07;;;2.50;;
24721;SDS011;12826;52.368;5.258;2022-10-16T18:00:32;10.23;;;2.20;;
24721;SDS011;12826;52.368;5.258;2022-10-16T18:13:39;6.63;;;1.87;;
24721;SDS011;12826;52.368;5.258;2022-10-16T18:17:12;9.57;;;2.15;;
24721;SDS011;12826;52.368;5.258;2022-10-16T18:20:23;7.43;;;1.90;;
24721;SDS011;12826;52.368;5.258;2022-10-16T18:23:36;10.60;;;2.30;;
24721;SDS011;12826;52.368;5.258;2022-10-16T18:26:37;7.38;;;1.70;;
24721;SDS011;12826;52.368;5.258;2022-10-16T18:35:54;13.25;;;2.50;;
24721;SDS011;12826;52.368;5.258;2022-10-16T18:42:25;10.50;;;2.22;;
24721;SDS011;12826;52.368;5.258;2022-10-16T19:17:34;7.57;;;2.20;;
24721;SDS011;12826;52.368;5.258;2022-10-16T19:20:42;8.18;;;1.67;;
24721;SDS011;12826;52.368;5.258;2022-10-16T19:49:07;8.20;;;2.53;;
24721;SDS011;12826;52.368;5.258;2022-10-16T19:56:57;13.38;;;3.28;;
24721;SDS011;12826;52.368;5.258;2022-10-16T20:04:09;9.57;;;4.05;;
24721;SDS011;12826;52.368;5.258;2022-10-16T20:17:25;12.80;;;4.55;;
24721;SDS011;12826;52.368;5.258;2022-10-16T20:20:26;15.13;;;4.07;;
24721;SDS011;12826;52.368;5.258;2022-10-16T20:24:00;14.45;;;4.40;;
24721;SDS011;12826;52.368;5.258;2022-10-16T20:27:04;7.47;;;3.90;;
24721;SDS011;12826;52.368;5.258;2022-10-16T20:33:09;13.18;;;3.88;;
24721;SDS011;12826;52.368;5.258;2022-10-16T20:36:18;14.77;;;4.20;;
24721;SDS011;12826;52.368;5.258;2022-10-16T20:39:33;11.35;;;3.65;;
24721;SDS011;12826;52.368;5.258;2022-10-16T20:42:36;12.90;;;3.65;;
24721;SDS011;12826;52.368;5.258;2022-10-16T20:45:40;10.27;;;3.40;;
24721;SDS011;12826;52.368;5.258;2022-10-16T20:48:45;8.23;;;3.15;;
24721;SDS011;12826;52.368;5.258;2022-10-16T20:51:49;13.73;;;3.45;;
24721;SDS011;12826;52.368;5.258;2022-10-16T20:58:04;9.73;;;3.00;;
24721;SDS011;12826;52.368;5.258;2022-10-16T21:07:28;11.48;;;3.53;;
24721;SDS011;12826;52.368;5.258;2022-10-16T21:13:32;10.15;;;3.60;;
24721;SDS011;12826;52.368;5.258;2022-10-16T21:16:33;12.35;;;3.50;;
24721;SDS011;12826;52.368;5.258;2022-10-16T21:19:33;13.77;;;3.92;;
24721;SDS011;12826;52.368;5.258;2022-10-16T21:22:34;9.35;;;3.75;;
24721;SDS011;12826;52.368;5.258;2022-10-16T21:25:37;9.73;;;3.25;;
24721;SDS011;12826;52.368;5.258;2022-10-16T21:31:47;10.68;;;3.70;;
24721;SDS011;12826;52.368;5.258;2022-10-16T21:34:48;6.18;;;3.25;;
24721;SDS011;12826;52.368;5.258;2022-10-16T21:37:49;7.25;;;3.53;;
24721;SDS011;12826;52.368;5.258;2022-10-16T21:40:49;8.20;;;3.22;;
24721;SDS011;12826;52.368;5.258;2022-10-16T21:43:50;8.35;;;3.17;;
24721;SDS011;12826;52.368;5.258;2022-10-16T21:46:51;8.70;;;3.22;;
24721;SDS011;12826;52.368;5.258;2022-10-16T21:49:57;12.50;;;4.82;;
24721;SDS011;12826;52.368;5.258;2022-10-16T21:52:57;9.82;;;3.13;;
24721;SDS011;12826;52.368;5.258;2022-10-16T21:55:59;10.18;;;3.40;;
24721;SDS011;12826;52.368;5.258;2022-10-16T21:59:17;4.93;;;2.60;;
24721;SDS011;12826;52.368;5.258;2022-10-16T22:02:18;8.85;;;3.28;;
24721;SDS011;12826;52.368;5.258;2022-10-16T22:08:25;5.80;;;3.20;;
24721;SDS011;12826;52.368;5.258;2022-10-16T22:11:28;5.45;;;2.78;;
24721;SDS011;12826;52.368;5.258;2022-10-16T22:17:42;4.57;;;2.83;;
24721;SDS011;12826;52.368;5.258;2022-10-16T22:20:43;5.32;;;3.33;;
24721;SDS011;12826;52.368;5.258;2022-10-16T22:23:48;9.88;;;3.63;;
24721;SDS011;12826;52.368;5.258;2022-10-16T22:26:52;8.18;;;3.17;;
24721;SDS011;12826;52.368;5.258;2022-10-16T22:29:55;4.60;;;2.80;;
24721;SDS011;12826;52.368;5.258;2022-10-16T22:36:07;8.07;;;3.47;;
24721;SDS011;12826;52.368;5.258;2022-10-16T22:39:13;7.00;;;3.38;;
24721;SDS011;12826;52.368;5.258;2022-10-16T22:42:25;7.38;;;3.58;;
24721;SDS011;12826;52.368;5.258;2022-10-16T22:45:33;9.30;;;4.03;;
24721;SDS011;12826;52.368;5.258;2022-10-16T22:51:37;11.02;;;4.70;;
24721;SDS011;12826;52.368;5.258;2022-10-16T22:54:38;7.70;;;4.28;;
24721;SDS011;12826;52.368;5.258;2022-10-16T23:00:43;8.65;;;4.50;;
24721;SDS011;12826;52.368;5.258;2022-10-16T23:03:44;7.13;;;5.00;;
24721;SDS011;12826;52.368;5.258;2022-10-16T23:12:52;7.90;;;4.57;;
24721;SDS011;12826;52.368;5.258;2022-10-16T23:18:56;9.63;;;4.88;;
24721;SDS011;12826;52.368;5.258;2022-10-16T23:22:17;8.18;;;4.85;;
24721;SDS011;12826;52.368;5.258;2022-10-16T23:25:22;6.97;;;4.68;;
24721;SDS011;12826;52.368;5.258;2022-10-16T23:28:25;8.13;;;4.93;;
24721;SDS011;12826;52.368;5.258;2022-10-16T23:34:42;6.97;;;4.70;;
24721;SDS011;12826;52.368;5.258;2022-10-16T23:37:43;8.20;;;4.40;;
24721;SDS011;12826;52.368;5.258;2022-10-16T23:43:49;7.05;;;5.05;;
24721;SDS011;12826;52.368;5.258;2022-10-16T23:46:54;10.52;;;6.13;;
24721;SDS011;12826;52.368;5.258;2022-10-16T23:50:06;7.57;;;4.93;;
24721;SDS011;12826;52.368;5.258;2022-10-16T23:53:08;11.35;;;5.95;;
24721;SDS011;12826;52.368;5.258;2022-10-16T23:56:18;9.90;;;6.10;;
24721;SDS011;12826;52.368;5.258;2022-10-16T23:59:20;9.95;;;6.00;;
